createdAt,value
2018-04-19T00:02:08.030Z,14.92
2018-04-19T00:04:35.626Z,14.93
2018-04-19T00:07:03.217Z,14.83
2018-04-19T00:09:30.743Z,14.89
2018-04-19T00:11:58.320Z,14.77
2018-04-19T00:14:25.843Z,14.75
2018-04-19T00:16:53.369Z,14.71
2018-04-19T00:19:20.925Z,14.43
2018-04-19T00:21:48.524Z,14.51
2018-04-19T00:24:16.065Z,14.52
2018-04-19T00:26:43.589Z,14.55
2018-04-19T00:29:11.112Z,14.49
2018-04-19T00:31:38.631Z,14.41
2018-04-19T00:34:06.232Z,14.47
2018-04-19T00:36:33.756Z,14.41
2018-04-19T00:39:01.357Z,14.48
2018-04-19T00:41:28.891Z,14.48
2018-04-19T00:43:56.418Z,14.33
2018-04-19T00:46:23.952Z,14.28
2018-04-19T00:48:51.588Z,14.36
2018-04-19T00:51:19.124Z,14.32
2018-04-19T00:53:46.652Z,14.21
2018-04-19T00:56:14.176Z,14.32
2018-04-19T00:58:41.717Z,14.31
2018-04-19T01:01:09.293Z,14.30
2018-04-19T01:03:36.819Z,14.41
2018-04-19T01:06:04.342Z,14.31
2018-04-19T01:08:31.873Z,14.28
2018-04-19T01:10:59.396Z,14.25
2018-04-19T01:13:26.916Z,14.22
2018-04-19T01:15:54.445Z,14.22
2018-04-19T01:18:21.989Z,14.12
2018-04-19T01:20:49.524Z,14.14
2018-04-19T01:23:17.056Z,14.21
2018-04-19T01:25:44.582Z,14.22
2018-04-19T01:28:12.103Z,14.20
2018-04-19T01:30:39.705Z,14.14
2018-04-19T01:33:07.239Z,14.09
2018-04-19T01:35:46.604Z,14.18
2018-04-19T01:38:14.145Z,14.06
2018-04-19T01:40:41.699Z,13.89
2018-04-19T01:43:09.225Z,13.86
2018-04-19T01:45:36.770Z,13.98
2018-04-19T01:48:04.299Z,14.01
2018-04-19T01:50:31.859Z,14.06
2018-04-19T01:52:59.392Z,14.02
2018-04-19T01:55:26.917Z,13.94
2018-04-19T01:57:54.465Z,14.00
2018-04-19T02:00:21.983Z,13.97
2018-04-19T02:02:49.509Z,13.84
2018-04-19T02:05:17.047Z,13.87
2018-04-19T02:07:44.676Z,13.85
2018-04-19T02:10:12.212Z,13.72
2018-04-19T02:12:39.753Z,13.68
2018-04-19T02:15:07.359Z,13.66
2018-04-19T02:17:34.889Z,13.65
2018-04-19T02:20:02.432Z,13.68
2018-04-19T02:22:29.968Z,13.67
2018-04-19T02:24:57.493Z,13.57
2018-04-19T02:27:25.023Z,13.55
2018-04-19T02:29:52.543Z,13.58
2018-04-19T02:32:20.080Z,13.51
2018-04-19T02:34:47.619Z,13.69
2018-04-19T02:37:15.156Z,13.55
2018-04-19T02:39:42.683Z,13.37
2018-04-19T02:42:10.212Z,13.36
2018-04-19T02:44:37.740Z,13.46
2018-04-19T02:47:05.280Z,13.44
2018-04-19T02:49:32.820Z,13.36
2018-04-19T02:52:00.955Z,13.13
2018-04-19T02:54:28.519Z,13.19
2018-04-19T02:56:56.053Z,13.27
2018-04-19T02:59:23.593Z,13.45
2018-04-19T03:01:51.132Z,13.24
2018-04-19T03:04:18.672Z,13.40
2018-04-19T03:06:46.214Z,13.29
2018-04-19T03:09:13.751Z,13.24
2018-04-19T03:11:41.294Z,13.19
2018-04-19T03:14:08.826Z,13.06
2018-04-19T03:16:36.456Z,13.16
2018-04-19T03:19:04.859Z,13.13
2018-04-19T03:21:32.393Z,13.20
2018-04-19T03:23:59.925Z,13.27
2018-04-19T03:26:27.515Z,13.07
2018-04-19T03:28:55.090Z,13.06
2018-04-19T03:31:22.601Z,12.97
2018-04-19T03:33:50.168Z,12.99
2018-04-19T03:36:17.755Z,12.98
2018-04-19T03:38:45.291Z,13.02
2018-04-19T03:41:12.815Z,13.05
2018-04-19T03:43:40.435Z,13.03
2018-04-19T03:46:07.963Z,13.07
2018-04-19T03:48:35.560Z,13.04
2018-04-19T03:51:03.115Z,13.07
2018-04-19T03:53:30.640Z,12.98
2018-04-19T03:55:58.164Z,12.94
2018-04-19T03:58:25.778Z,12.86
2018-04-19T04:00:53.306Z,12.76
2018-04-19T04:03:20.837Z,12.92
2018-04-19T04:05:48.359Z,12.92
2018-04-19T04:08:15.980Z,12.83
2018-04-19T04:10:43.491Z,12.83
2018-04-19T04:13:11.016Z,12.78
2018-04-19T04:15:38.612Z,12.90
2018-04-19T04:18:17.846Z,13.04
2018-04-19T04:20:57.340Z,13.02
2018-04-19T04:23:40.724Z,13.00
2018-04-19T04:26:08.258Z,12.98
2018-04-19T04:28:35.782Z,13.14
2018-04-19T04:31:03.341Z,12.97
2018-04-19T04:33:30.889Z,13.12
2018-04-19T04:35:58.421Z,13.05
2018-04-19T04:38:25.939Z,13.11
2018-04-19T04:40:53.468Z,13.14
2018-04-19T04:43:21.096Z,13.12
2018-04-19T04:45:48.621Z,13.25
2018-04-19T04:48:16.157Z,13.26
2018-04-19T04:50:43.685Z,13.29
2018-04-19T04:53:11.218Z,13.40
2018-04-19T04:55:38.756Z,13.54
2018-04-19T04:58:06.281Z,13.50
2018-04-19T05:00:33.795Z,13.59
2018-04-19T05:03:01.332Z,13.88
2018-04-19T05:05:28.857Z,13.90
2018-04-19T05:07:56.389Z,13.88
2018-04-19T05:10:23.912Z,14.01
2018-04-19T05:12:51.449Z,14.13
2018-04-19T05:15:19.034Z,14.29
2018-04-19T05:17:46.572Z,14.53
2018-04-19T05:20:14.290Z,14.73
2018-04-19T05:22:41.935Z,14.97
2018-04-19T05:25:09.476Z,15.38
2018-04-19T05:27:37.004Z,15.60
2018-04-19T05:30:04.572Z,15.71
2018-04-19T05:32:32.117Z,15.91
2018-04-19T05:34:59.647Z,16.23
2018-04-19T05:37:27.179Z,16.35
2018-04-19T05:39:54.781Z,16.71
2018-04-19T05:42:22.329Z,16.96
2018-04-19T07:00:51.842Z,23.37
2018-04-19T07:03:19.400Z,23.84
2018-04-19T07:05:46.940Z,23.73
2018-04-19T07:08:14.459Z,23.92
2018-04-19T07:10:41.993Z,24.05
2018-04-19T07:13:09.537Z,23.51
2018-04-19T07:15:37.109Z,23.77
2018-04-19T07:18:04.642Z,24.23
2018-04-19T07:20:32.235Z,24.01
2018-04-19T07:22:59.753Z,24.92
2018-04-19T07:25:27.287Z,25.44
2018-04-19T07:27:54.834Z,25.30
2018-04-19T07:30:22.378Z,25.30
2018-04-19T07:32:49.917Z,25.50
2018-04-19T07:35:17.468Z,25.68
2018-04-19T07:37:45.047Z,26.11
2018-04-19T07:40:12.612Z,26.07
2018-04-19T07:42:40.171Z,25.95
2018-04-19T07:45:07.696Z,26.59
2018-04-19T07:47:35.224Z,26.03
2018-04-19T07:50:02.746Z,27.46
2018-04-19T07:52:30.310Z,26.36
2018-04-19T07:54:58.542Z,28.46
2018-04-19T07:57:26.078Z,27.93
2018-04-19T07:59:53.632Z,26.85
2018-04-19T08:02:21.261Z,27.81
2018-04-19T08:04:48.915Z,28.68
2018-04-19T08:07:16.494Z,29.63
2018-04-19T08:09:44.049Z,29.50
2018-04-19T08:12:11.588Z,28.04
2018-04-19T08:14:39.108Z,28.82
2018-04-19T08:17:06.658Z,29.48
2018-04-19T08:19:34.289Z,30.15
2018-04-19T08:22:01.851Z,31.23
2018-04-19T08:24:29.432Z,29.29
2018-04-19T08:26:57.059Z,30.36
2018-04-19T08:29:24.579Z,30.10
2018-04-19T08:31:52.125Z,30.98
2018-04-19T08:34:19.636Z,31.12
2018-04-19T08:36:47.168Z,30.34
2018-04-19T08:39:14.708Z,30.34
2018-04-19T08:41:42.253Z,31.19
2018-04-19T08:44:09.890Z,32.34
2018-04-19T08:46:37.415Z,31.26
2018-04-19T08:49:04.937Z,30.07
2018-04-19T08:51:32.467Z,31.79
2018-04-19T08:53:59.997Z,30.99
2018-04-19T08:56:27.568Z,34.52
2018-04-19T08:58:55.100Z,33.33
2018-04-19T09:01:22.631Z,34.06
2018-04-19T09:03:50.268Z,35.08
2018-04-19T09:06:17.784Z,33.30
2018-04-19T09:08:45.387Z,34.61
2018-04-19T09:11:12.948Z,35.00
2018-04-19T09:13:40.503Z,34.38
2018-04-19T09:16:08.022Z,34.60
2018-04-19T09:18:35.623Z,34.74
2018-04-19T09:21:03.184Z,34.35
2018-04-19T09:23:30.704Z,35.77
2018-04-19T09:25:58.307Z,35.02
2018-04-19T09:28:25.878Z,34.09
2018-04-19T09:30:53.399Z,35.88
2018-04-19T09:33:20.940Z,35.11
2018-04-19T09:35:48.481Z,34.49
2018-04-19T09:38:16.004Z,35.22
2018-04-19T09:40:43.519Z,34.61
2018-04-19T09:43:11.050Z,35.67
2018-04-19T09:45:38.582Z,36.58
2018-04-19T09:48:06.123Z,35.15
2018-04-19T09:50:33.654Z,32.52
2018-04-19T09:53:01.187Z,33.21
2018-04-19T09:55:28.719Z,33.02
2018-04-19T09:58:08.091Z,33.72
2018-04-19T10:00:41.307Z,31.93
2018-04-19T10:03:08.835Z,34.72
2018-04-19T10:08:35.055Z,32.73
2018-04-19T10:11:02.581Z,34.16
2018-04-19T10:13:30.099Z,32.97
2018-04-19T10:15:57.650Z,32.85
2018-04-19T10:18:25.193Z,30.94
2018-04-19T10:20:52.731Z,32.77
2018-04-19T10:23:20.248Z,34.40
2018-04-19T10:25:47.771Z,33.68
2018-04-19T10:28:15.296Z,32.12
2018-04-19T10:30:42.820Z,31.90
2018-04-19T10:33:10.344Z,31.73
2018-04-19T10:35:37.884Z,32.41
2018-04-19T10:38:05.470Z,31.12
2018-04-19T10:40:33.000Z,29.16
2018-04-19T10:43:00.525Z,29.51
2018-04-19T10:45:28.092Z,28.34
2018-04-19T10:47:55.655Z,28.29
2018-04-19T10:50:23.218Z,28.47
2018-04-19T10:52:50.768Z,28.26
2018-04-19T10:55:18.375Z,26.25
2018-04-19T10:57:45.948Z,27.31
2018-04-19T11:00:13.475Z,26.96
2018-04-19T11:02:41.055Z,26.03
2018-04-19T11:05:08.593Z,26.08
2018-04-19T11:07:36.128Z,25.81
2018-04-19T11:10:03.674Z,25.90
2018-04-19T11:12:31.191Z,25.65
2018-04-19T11:14:58.764Z,26.08
2018-04-19T11:17:26.289Z,26.28
2018-04-19T11:19:53.820Z,25.80
2018-04-19T11:22:21.344Z,25.96
2018-04-19T11:24:48.878Z,26.36
2018-04-19T11:27:16.396Z,26.08
2018-04-19T11:29:43.920Z,26.33
2018-04-19T11:32:11.447Z,26.10
2018-04-19T11:34:38.976Z,25.72
2018-04-19T11:37:06.598Z,26.02
2018-04-19T11:39:34.156Z,25.56
2018-04-19T11:42:01.718Z,26.05
2018-04-19T11:44:29.255Z,26.16
2018-04-19T11:46:56.772Z,24.94
2018-04-19T11:49:24.400Z,25.20
2018-04-19T11:51:51.925Z,25.11
2018-04-19T11:54:19.480Z,25.38
2018-04-19T11:56:47.046Z,25.53
2018-04-19T11:59:14.571Z,25.02
2018-04-19T12:01:42.126Z,25.61
2018-04-19T12:04:09.656Z,25.31
2018-04-19T12:06:37.172Z,25.33
2018-04-19T12:09:05.592Z,24.98
2018-04-19T12:11:33.157Z,25.25
2018-04-19T12:14:00.720Z,25.11
2018-04-19T12:16:28.262Z,25.31
2018-04-19T12:18:55.788Z,24.92
2018-04-19T12:21:23.329Z,25.31
2018-04-19T12:23:50.854Z,25.18
2018-04-19T12:26:18.390Z,24.71
2018-04-19T12:28:45.924Z,24.65
2018-04-19T12:31:13.500Z,24.85
2018-04-19T12:33:41.025Z,24.82
2018-04-19T12:36:08.555Z,25.33
2018-04-19T12:38:36.100Z,25.18
2018-04-19T12:41:03.684Z,24.90
2018-04-19T12:43:31.228Z,24.85
2018-04-19T12:45:58.762Z,24.75
2018-04-19T12:48:26.288Z,24.85
2018-04-19T12:50:53.805Z,25.11
2018-04-19T12:53:21.341Z,24.75
2018-04-19T12:55:48.924Z,25.14
2018-04-19T12:58:16.443Z,24.97
2018-04-19T13:00:44.050Z,25.02
2018-04-19T13:03:11.582Z,25.08
2018-04-19T13:05:39.100Z,24.95
2018-04-19T13:08:06.711Z,24.85
2018-04-19T13:10:34.287Z,25.07
2018-04-19T13:13:01.821Z,24.65
2018-04-19T13:15:29.342Z,24.93
2018-04-19T13:17:56.971Z,25.14
2018-04-19T13:20:24.496Z,25.07
2018-04-19T13:22:52.020Z,25.13
2018-04-19T13:25:19.549Z,25.37
2018-04-19T13:27:47.072Z,25.16
2018-04-19T13:30:14.599Z,25.13
2018-04-19T13:32:42.123Z,25.21
2018-04-19T13:35:09.682Z,25.20
2018-04-19T13:37:37.208Z,25.27
2018-04-19T13:40:04.730Z,25.16
2018-04-19T13:42:32.261Z,25.18
2018-04-19T13:44:59.833Z,25.15
2018-04-19T13:47:27.362Z,25.05
2018-04-19T13:49:54.891Z,25.24
2018-04-19T13:52:22.415Z,25.33
2018-04-19T13:54:49.957Z,25.31
2018-04-19T13:57:17.484Z,25.24
2018-04-19T13:59:45.074Z,25.34
2018-04-19T14:02:12.606Z,25.24
2018-04-19T14:04:40.208Z,25.35
2018-04-19T14:07:07.724Z,25.11
2018-04-19T14:09:35.259Z,24.89
2018-04-19T14:12:02.887Z,25.11
2018-04-19T14:14:30.413Z,25.13
2018-04-19T14:16:57.940Z,25.05
2018-04-19T14:19:25.485Z,25.03
2018-04-19T14:21:53.035Z,25.11
2018-04-19T14:24:20.556Z,24.82
2018-04-19T14:26:49.032Z,24.84
2018-04-19T14:29:16.547Z,25.07
2018-04-19T14:31:44.182Z,25.10
2018-04-19T14:34:11.721Z,25.00
2018-04-19T14:36:39.259Z,24.91
2018-04-19T14:39:06.795Z,25.11
2018-04-19T14:41:34.320Z,24.91
2018-04-19T14:44:01.861Z,24.94
2018-04-19T14:46:29.429Z,25.03
2018-04-19T14:48:56.960Z,24.94
2018-04-19T14:51:24.481Z,24.97
2018-04-19T14:53:52.020Z,24.93
2018-04-19T14:56:19.548Z,24.69
2018-04-19T14:58:47.135Z,24.64
2018-04-19T15:01:14.667Z,24.62
2018-04-19T15:03:42.179Z,24.93
2018-04-19T15:06:09.712Z,24.72
2018-04-19T15:08:37.245Z,24.84
2018-04-19T15:11:04.760Z,24.87
2018-04-19T15:13:32.290Z,24.90
2018-04-19T15:15:59.821Z,24.74
2018-04-19T15:18:27.340Z,24.76
2018-04-19T15:20:54.972Z,24.79
2018-04-19T15:23:22.500Z,24.87
2018-04-19T15:25:50.032Z,24.81
2018-04-19T15:28:17.580Z,24.77
2018-04-19T15:30:45.105Z,24.71
2018-04-19T15:33:12.637Z,24.72
2018-04-19T15:35:40.225Z,24.72
2018-04-19T15:38:07.782Z,24.84
2018-04-19T15:40:35.302Z,24.78
2018-04-19T15:43:02.916Z,24.72
2018-04-19T15:45:30.585Z,24.67
2018-04-19T15:47:58.104Z,24.64
2018-04-19T15:50:25.617Z,24.69
2018-04-19T15:52:53.143Z,24.70
2018-04-19T15:55:20.680Z,24.68
2018-04-19T15:57:48.191Z,24.69
2018-04-19T16:00:15.725Z,24.72
2018-04-19T16:02:43.282Z,24.73
2018-04-19T16:05:10.943Z,24.57
2018-04-19T16:07:38.504Z,24.60
2018-04-19T16:10:06.034Z,24.57
2018-04-19T16:12:33.547Z,24.56
2018-04-19T16:15:01.101Z,24.59
2018-04-19T16:17:28.716Z,24.58
2018-04-19T16:19:56.241Z,24.58
2018-04-19T16:22:23.759Z,24.60
2018-04-19T16:24:51.302Z,24.60
2018-04-19T16:27:18.851Z,24.57
2018-04-19T16:29:46.365Z,24.53
2018-04-19T16:32:13.897Z,24.55
2018-04-19T16:34:41.421Z,24.53
2018-04-19T16:37:08.953Z,24.54
2018-04-19T16:39:36.530Z,24.49
2018-04-19T16:42:04.075Z,24.47
2018-04-19T16:44:31.592Z,24.42
2018-04-19T16:46:59.151Z,24.40
2018-04-19T16:49:26.683Z,24.44
2018-04-19T16:51:54.195Z,24.44
2018-04-19T16:54:21.712Z,24.36
2018-04-19T16:56:49.287Z,24.33
2018-04-19T16:59:16.820Z,24.33
2018-04-19T17:01:44.338Z,24.27
2018-04-19T17:04:11.856Z,24.23
2018-04-19T17:06:39.381Z,24.22
2018-04-19T17:09:07.193Z,24.25
2018-04-19T17:11:34.754Z,24.22
2018-04-19T17:14:02.418Z,24.21
2018-04-19T17:16:30.227Z,24.22
2018-04-19T17:18:57.826Z,24.17
2018-04-19T17:21:25.351Z,24.16
2018-04-19T17:23:52.890Z,24.14
2018-04-19T17:26:20.516Z,24.13
2018-04-19T17:28:48.052Z,24.10
2018-04-19T17:31:15.569Z,24.05
2018-04-19T17:33:43.183Z,24.02
2018-04-19T17:36:10.869Z,24.00
2018-04-19T17:38:38.631Z,23.97
2018-04-19T17:41:06.160Z,23.94
2018-04-19T17:43:33.674Z,23.89
2018-04-19T17:46:01.311Z,23.83
2018-04-19T17:48:28.833Z,23.82
2018-04-19T17:50:56.380Z,23.78
2018-04-19T17:53:23.895Z,23.75
2018-04-19T17:55:51.415Z,23.67
2018-04-19T17:58:18.987Z,23.62
2018-04-19T18:00:46.559Z,23.54
2018-04-19T18:03:14.071Z,23.51
2018-04-19T18:05:41.683Z,23.46
2018-04-19T18:08:09.215Z,23.39
2018-04-19T18:10:36.800Z,23.41
2018-04-19T18:13:04.329Z,23.39
2018-04-19T18:15:31.889Z,23.20
2018-04-19T18:17:59.449Z,23.10
2018-04-19T18:20:27.013Z,23.14
2018-04-19T18:22:54.548Z,23.06
2018-04-19T18:25:22.095Z,22.98
2018-04-19T18:27:49.628Z,22.97
2018-04-19T18:30:17.186Z,22.92
2018-04-19T18:32:44.737Z,22.85
2018-04-19T18:35:12.298Z,22.83
2018-04-19T18:37:39.826Z,22.88
2018-04-19T18:40:07.423Z,22.78
2018-04-19T18:42:34.976Z,22.73
2018-04-19T18:45:02.510Z,22.65
2018-04-19T18:47:30.046Z,22.62
2018-04-19T18:49:57.606Z,22.52
2018-04-19T18:52:25.144Z,22.50
2018-04-19T18:54:52.685Z,22.43
2018-04-19T18:57:20.204Z,22.39
2018-04-19T18:59:47.736Z,22.32
2018-04-19T19:02:15.369Z,22.26
2018-04-19T19:04:43.020Z,22.18
2018-04-19T19:07:10.551Z,22.15
2018-04-19T19:09:38.141Z,22.07
2018-04-19T19:12:05.696Z,22.04
2018-04-19T19:14:34.149Z,21.94
2018-04-19T19:20:12.923Z,21.85
2018-04-19T19:22:40.456Z,21.78
2018-04-19T19:25:08.052Z,21.75
2018-04-19T19:27:35.573Z,21.70
2018-04-19T19:30:03.093Z,21.65
2018-04-19T19:32:30.721Z,21.56
2018-04-19T19:34:58.257Z,21.55
2018-04-19T19:37:25.772Z,21.50
2018-04-19T19:39:53.303Z,21.43
2018-04-19T19:42:20.832Z,21.37
2018-04-19T19:44:48.350Z,21.28
2018-04-19T19:47:15.882Z,21.29
2018-04-19T19:49:43.407Z,21.28
2018-04-19T19:52:10.923Z,21.26
2018-04-19T19:54:38.456Z,21.20
2018-04-19T19:57:05.984Z,21.15
2018-04-19T19:59:33.539Z,21.14
2018-04-19T20:02:01.081Z,21.08
2018-04-19T20:04:28.695Z,21.07
2018-04-19T20:06:56.226Z,21.04
2018-04-19T20:09:23.743Z,20.92
2018-04-19T20:11:51.381Z,20.96
2018-04-19T20:14:18.904Z,20.90
2018-04-19T20:16:46.420Z,20.84
2018-04-19T20:19:14.061Z,20.87
2018-04-19T20:21:41.596Z,20.80
2018-04-19T20:24:09.164Z,20.80
2018-04-19T20:26:36.692Z,20.74
2018-04-19T20:29:04.225Z,20.72
2018-04-19T20:31:31.865Z,20.72
2018-04-19T20:33:59.404Z,20.69
2018-04-19T20:36:26.974Z,20.64
2018-04-19T20:38:54.497Z,20.65
2018-04-19T20:41:22.024Z,20.58
2018-04-19T20:43:49.541Z,20.56
2018-04-19T20:46:17.118Z,20.52
2018-04-19T20:48:44.660Z,20.46
2018-04-19T20:51:12.468Z,20.44
2018-04-19T20:53:40.310Z,20.39
2018-04-19T20:56:08.083Z,20.33
2018-04-19T20:58:35.807Z,20.29
2018-04-19T21:01:03.606Z,20.23
2018-04-19T21:03:31.264Z,20.07
2018-04-19T21:05:58.826Z,20.12
2018-04-19T21:08:26.389Z,20.08
2018-04-19T21:10:53.945Z,20.01
2018-04-19T21:13:21.488Z,19.97
2018-04-19T21:15:49.017Z,19.97
2018-04-19T21:18:16.548Z,19.84
2018-04-19T21:20:44.076Z,19.83
2018-04-19T21:23:11.604Z,19.79
2018-04-19T21:25:39.123Z,19.71
2018-04-19T21:28:06.639Z,19.74
2018-04-19T21:30:34.172Z,19.62
2018-04-19T21:33:01.711Z,19.55
2018-04-19T21:35:29.241Z,19.49
2018-04-19T21:37:56.783Z,19.42
2018-04-19T21:40:24.317Z,19.43
2018-04-19T21:42:51.848Z,19.38
2018-04-19T21:45:19.374Z,19.30
2018-04-19T21:47:46.934Z,19.24
2018-04-19T21:50:14.456Z,19.22
2018-04-19T21:52:41.975Z,19.22
2018-04-19T21:55:09.612Z,19.18
2018-04-19T21:57:37.129Z,19.12
2018-04-19T22:00:04.659Z,19.13
2018-04-19T22:02:32.187Z,19.06
2018-04-19T22:04:59.720Z,19.06
2018-04-19T22:07:27.603Z,19.01
2018-04-19T22:09:55.179Z,18.90
2018-04-19T22:12:22.693Z,18.95
2018-04-19T22:14:50.297Z,18.88
2018-04-19T22:17:17.824Z,18.88
2018-04-19T22:19:45.386Z,18.84
2018-04-19T22:22:12.908Z,18.78
2018-04-19T22:24:40.436Z,18.77
2018-04-19T22:27:07.962Z,18.71
2018-04-19T22:29:35.486Z,18.70
2018-04-19T22:32:02.995Z,18.67
2018-04-19T22:34:30.552Z,18.69
2018-04-19T22:36:58.133Z,18.55
2018-04-19T22:39:25.650Z,18.54
2018-04-19T22:41:53.244Z,18.48
2018-04-19T22:44:20.770Z,18.52
2018-04-19T22:46:48.374Z,18.50
2018-04-19T22:49:15.887Z,18.43
2018-04-19T22:51:43.418Z,18.42
2018-04-19T22:54:10.951Z,18.32
2018-04-19T22:56:38.496Z,18.34
2018-04-19T22:59:06.020Z,18.32
2018-04-19T23:01:33.553Z,18.26
2018-04-19T23:04:01.092Z,18.27
2018-04-19T23:06:28.652Z,18.12
2018-04-19T23:08:56.208Z,18.18
2018-04-19T23:11:23.732Z,18.21
2018-04-19T23:13:51.326Z,18.20
2018-04-19T23:16:18.851Z,17.91
2018-04-19T23:18:46.404Z,18.03
2018-04-19T23:21:13.944Z,17.98
2018-04-19T23:23:41.466Z,17.90
2018-04-19T23:26:08.980Z,17.84
2018-04-19T23:28:36.505Z,17.87
2018-04-19T23:31:04.044Z,17.80
2018-04-19T23:33:31.575Z,17.89
2018-04-19T23:35:59.096Z,17.73
2018-04-19T23:38:26.619Z,17.72
2018-04-19T23:40:54.140Z,17.70
2018-04-19T23:43:21.674Z,17.69
2018-04-19T23:45:49.198Z,17.59
2018-04-19T23:48:16.756Z,17.52
2018-04-19T23:50:44.288Z,17.43
2018-04-19T23:53:11.805Z,17.42
2018-04-19T23:55:39.334Z,17.40
2018-04-19T23:58:06.850Z,17.02
